Time;durP1;ratioP1;P1;durP2;ratioP2;P2;SDS_P1;SDS_P2;PMS_P1;PMS_P2;Temp;Humidity;BMP_temperature;BMP_pressure;BME280_temperature;BME280_humidity;BME280_pressure;Samples;Min_cycle;Max_cycle;Signal;HPM_P1;HPM_P2
2022/07/16 00:02:05;;;;;;;8.02;2.50;;;;;;;;;;4956908;29;20034;-73
2022/07/16 00:04:31;;;;;;;5.55;1.70;;;;;;;;;;4956817;29;20024;-74
2022/07/16 00:06:57;;;;;;;6.18;1.73;;;;;;;;;;4956862;29;20510;-74
2022/07/16 00:09:23;;;;;;;6.20;1.60;;;;;;;;;;4956837;29;20026;-73
2022/07/16 00:11:49;;;;;;;5.40;2.70;;;;;;;;;;4956766;29;20390;-73
2022/07/16 00:14:15;;;;;;;7.40;2.15;;;;;;;;;;4956961;29;20454;-74
2022/07/16 00:16:41;;;;;;;4.82;1.90;;;;;;;;;;4956516;29;20038;-74
2022/07/16 00:19:18;;;;;;;4.32;1.50;;;;;;;;;;4966362;28;20034;-74
2022/07/16 00:21:44;;;;;;;3.80;1.83;;;;;;;;;;4975926;28;20018;-73
2022/07/16 00:24:11;;;;;;;5.97;1.80;;;;;;;;;;4974703;28;20366;-74
2022/07/16 00:26:37;;;;;;;5.32;1.70;;;;;;;;;;4975860;28;20043;-74
2022/07/16 00:29:03;;;;;;;4.75;1.70;;;;;;;;;;4975897;28;20027;-73
2022/07/16 00:31:29;;;;;;;3.92;1.90;;;;;;;;;;4975828;28;20070;-74
2022/07/16 00:33:55;;;;;;;3.45;1.77;;;;;;;;;;4975714;28;20031;-74
2022/07/16 00:36:21;;;;;;;5.90;1.60;;;;;;;;;;4975444;28;20039;-73
2022/07/16 00:38:47;;;;;;;2.60;1.50;;;;;;;;;;4975576;28;20046;-73
2022/07/16 00:41:16;;;;;;;6.65;1.80;;;;;;;;;;4975620;28;20393;-74
2022/07/16 00:43:59;;;;;;;5.45;2.00;;;;;;;;;;4975081;28;20474;-73
2022/07/16 00:46:25;;;;;;;6.32;2.60;;;;;;;;;;4960894;28;20050;-73
2022/07/16 00:48:52;;;;;;;3.75;1.83;;;;;;;;;;4956195;28;20031;-74
2022/07/16 00:51:18;;;;;;;5.40;2.35;;;;;;;;;;4956013;28;20030;-74
2022/07/16 00:53:44;;;;;;;5.93;2.13;;;;;;;;;;4955861;29;20031;-74
2022/07/16 00:56:11;;;;;;;7.10;2.00;;;;;;;;;;4955935;29;20139;-73
2022/07/16 00:58:41;;;;;;;4.25;2.35;;;;;;;;;;4956040;29;20441;-74
2022/07/16 01:01:08;;;;;;;3.20;2.05;;;;;;;;;;4955762;28;20447;-73
2022/07/16 01:03:34;;;;;;;7.68;2.42;;;;;;;;;;4956037;28;20038;-73
2022/07/16 01:06:01;;;;;;;6.47;2.28;;;;;;;;;;4955637;29;20031;-74
2022/07/16 01:08:27;;;;;;;4.28;2.40;;;;;;;;;;4955728;29;20027;-73
2022/07/16 01:10:55;;;;;;;5.50;2.28;;;;;;;;;;4955550;29;20039;-73
2022/07/16 01:13:21;;;;;;;5.15;2.20;;;;;;;;;;4955840;29;20073;-74
2022/07/16 01:15:48;;;;;;;5.47;2.00;;;;;;;;;;4955590;28;20123;-74
2022/07/16 01:18:14;;;;;;;5.63;2.13;;;;;;;;;;4955528;28;20031;-73
2022/07/16 01:20:40;;;;;;;5.70;2.50;;;;;;;;;;4973236;28;20074;-74
2022/07/16 01:23:06;;;;;;;6.28;2.20;;;;;;;;;;4974913;28;20027;-73
2022/07/16 01:25:32;;;;;;;8.27;2.60;;;;;;;;;;4974859;28;20027;-73
2022/07/16 01:27:58;;;;;;;4.00;2.50;;;;;;;;;;4974753;28;20082;-73
2022/07/16 01:30:25;;;;;;;7.03;2.95;;;;;;;;;;4974720;28;20023;-73
2022/07/16 01:32:51;;;;;;;5.30;2.42;;;;;;;;;;4974504;28;20031;-73
2022/07/16 01:35:18;;;;;;;4.93;2.38;;;;;;;;;;4974314;28;20106;-74
2022/07/16 01:37:44;;;;;;;4.38;2.53;;;;;;;;;;4974404;28;20049;-73
2022/07/16 01:40:10;;;;;;;5.10;2.38;;;;;;;;;;4974513;28;20414;-73
2022/07/16 01:42:36;;;;;;;3.72;2.45;;;;;;;;;;4974384;28;20058;-74
2022/07/16 01:45:03;;;;;;;5.65;2.70;;;;;;;;;;4974188;28;20085;-74
2022/07/16 01:47:29;;;;;;;5.72;2.40;;;;;;;;;;4974335;28;20037;-73
2022/07/16 01:49:55;;;;;;;4.38;2.75;;;;;;;;;;4974186;28;20027;-73
2022/07/16 01:52:22;;;;;;;5.63;2.80;;;;;;;;;;4974196;28;20019;-73
2022/07/16 01:54:49;;;;;;;7.85;2.88;;;;;;;;;;4974017;28;20141;-74
2022/07/16 01:57:15;;;;;;;6.95;2.90;;;;;;;;;;4973403;28;20027;-73
2022/07/16 01:59:42;;;;;;;4.70;2.45;;;;;;;;;;4974212;28;20019;-74
2022/07/16 02:02:08;;;;;;;6.32;2.90;;;;;;;;;;4974156;28;20034;-74
2022/07/16 02:04:34;;;;;;;7.15;3.33;;;;;;;;;;4973920;28;20027;-74
2022/07/16 02:07:00;;;;;;;7.53;3.20;;;;;;;;;;4973892;28;20031;-74
2022/07/16 02:09:26;;;;;;;6.25;3.20;;;;;;;;;;4973929;28;20041;-74
2022/07/16 02:11:52;;;;;;;7.68;2.80;;;;;;;;;;4973842;28;20465;-74
2022/07/16 02:14:18;;;;;;;7.32;3.15;;;;;;;;;;4973957;28;20791;-73
2022/07/16 02:16:44;;;;;;;7.78;2.80;;;;;;;;;;4973547;28;20026;-73
2022/07/16 02:19:11;;;;;;;6.70;2.75;;;;;;;;;;4961798;28;20470;-73
2022/07/16 02:21:37;;;;;;;7.38;3.20;;;;;;;;;;4973911;28;20390;-74
2022/07/16 02:24:03;;;;;;;6.15;2.55;;;;;;;;;;4973913;28;20057;-74
2022/07/16 02:26:29;;;;;;;5.85;3.15;;;;;;;;;;4973560;28;20027;-74
2022/07/16 02:28:55;;;;;;;6.05;3.20;;;;;;;;;;4973799;28;20026;-74
2022/07/16 02:31:21;;;;;;;7.70;3.08;;;;;;;;;;4972191;28;20031;-74
2022/07/16 02:33:47;;;;;;;6.53;3.10;;;;;;;;;;4973608;28;20082;-74
2022/07/16 02:36:13;;;;;;;6.50;3.30;;;;;;;;;;4973444;28;20043;-74
2022/07/16 02:38:39;;;;;;;7.35;3.22;;;;;;;;;;4973564;28;20067;-74
2022/07/16 02:41:05;;;;;;;7.35;3.50;;;;;;;;;;4973607;28;20390;-74
2022/07/16 02:43:32;;;;;;;5.93;3.28;;;;;;;;;;4973647;28;20030;-74
2022/07/16 02:45:58;;;;;;;6.50;3.28;;;;;;;;;;4962724;28;20035;-74
2022/07/16 02:48:24;;;;;;;7.20;3.60;;;;;;;;;;4954172;29;20516;-74
2022/07/16 02:50:50;;;;;;;9.30;3.67;;;;;;;;;;4954162;29;20046;-73
2022/07/16 02:53:16;;;;;;;6.55;3.58;;;;;;;;;;4954178;29;20117;-73
2022/07/16 02:55:42;;;;;;;7.75;3.45;;;;;;;;;;4954156;29;20050;-73
2022/07/16 02:58:08;;;;;;;4.55;3.17;;;;;;;;;;4954185;28;20031;-74
2022/07/16 03:00:34;;;;;;;8.10;3.55;;;;;;;;;;4971078;28;20034;-74
2022/07/16 03:03:01;;;;;;;8.27;3.72;;;;;;;;;;4973239;28;20150;-74
2022/07/16 03:05:27;;;;;;;6.57;3.40;;;;;;;;;;4972872;28;20026;-74
2022/07/16 03:07:53;;;;;;;8.07;3.90;;;;;;;;;;4975039;28;20046;-74
2022/07/16 03:10:19;;;;;;;6.88;3.80;;;;;;;;;;4977059;28;20038;-74
2022/07/16 03:12:45;;;;;;;5.80;3.60;;;;;;;;;;4977209;28;20089;-73
2022/07/16 03:15:12;;;;;;;8.60;3.83;;;;;;;;;;4976881;28;20035;-74
2022/07/16 03:17:38;;;;;;;5.07;3.28;;;;;;;;;;4977167;28;20350;-73
2022/07/16 03:20:05;;;;;;;8.98;3.35;;;;;;;;;;4976836;28;20362;-74
2022/07/16 03:22:31;;;;;;;8.23;3.80;;;;;;;;;;4976973;28;20478;-74
2022/07/16 03:24:57;;;;;;;9.60;3.90;;;;;;;;;;4976810;28;20058;-74
2022/07/16 03:27:23;;;;;;;6.00;3.72;;;;;;;;;;4976829;28;20466;-74
2022/07/16 03:29:49;;;;;;;7.05;3.20;;;;;;;;;;4976740;28;20035;-74
2022/07/16 03:32:15;;;;;;;8.57;3.40;;;;;;;;;;4976887;28;20027;-74
2022/07/16 03:34:41;;;;;;;9.07;4.03;;;;;;;;;;4976527;28;20533;-74
2022/07/16 03:37:07;;;;;;;6.50;3.53;;;;;;;;;;4976841;28;20278;-74
2022/07/16 03:39:34;;;;;;;9.90;4.18;;;;;;;;;;4976658;28;20066;-74
2022/07/16 03:42:00;;;;;;;10.57;3.63;;;;;;;;;;4976718;28;20148;-74
2022/07/16 03:44:26;;;;;;;7.15;3.60;;;;;;;;;;4976622;28;20031;-74
2022/07/16 03:46:52;;;;;;;14.07;3.90;;;;;;;;;;4976232;28;20034;-74
2022/07/16 03:49:18;;;;;;;6.20;3.58;;;;;;;;;;4976397;28;20500;-73
2022/07/16 03:51:44;;;;;;;8.27;3.90;;;;;;;;;;4976170;28;20035;-74
2022/07/16 03:54:10;;;;;;;9.13;3.97;;;;;;;;;;4976041;28;20029;-74
2022/07/16 03:56:36;;;;;;;6.65;3.72;;;;;;;;;;4976229;28;20023;-74
2022/07/16 03:59:02;;;;;;;11.05;3.78;;;;;;;;;;4976248;28;20018;-74
2022/07/16 04:01:28;;;;;;;10.73;3.40;;;;;;;;;;4974698;28;20481;-74
2022/07/16 04:03:54;;;;;;;9.65;3.65;;;;;;;;;;4976275;28;20469;-74
2022/07/16 04:06:21;;;;;;;12.05;3.65;;;;;;;;;;4975683;28;20385;-74
2022/07/16 04:08:47;;;;;;;9.80;3.67;;;;;;;;;;4976216;28;20073;-74
2022/07/16 04:11:13;;;;;;;12.98;3.50;;;;;;;;;;4976051;28;20378;-74
2022/07/16 04:13:40;;;;;;;6.90;3.20;;;;;;;;;;4976104;28;20058;-74
2022/07/16 04:16:07;;;;;;;5.60;3.22;;;;;;;;;;4975723;28;20445;-74
2022/07/16 04:18:34;;;;;;;7.70;3.00;;;;;;;;;;4962009;28;20451;-74
2022/07/16 04:21:00;;;;;;;8.13;3.10;;;;;;;;;;4956062;29;20027;-74
2022/07/16 04:23:26;;;;;;;7.20;2.90;;;;;;;;;;4956809;29;20086;-73
2022/07/16 04:25:52;;;;;;;5.15;3.05;;;;;;;;;;4956335;29;20031;-74
2022/07/16 04:28:18;;;;;;;8.15;2.67;;;;;;;;;;4956507;29;20023;-75
2022/07/16 04:30:44;;;;;;;6.80;2.80;;;;;;;;;;4956449;29;20027;-73
2022/07/16 04:33:10;;;;;;;8.15;3.30;;;;;;;;;;4956614;29;20035;-73
2022/07/16 04:35:37;;;;;;;7.90;3.40;;;;;;;;;;4963830;28;20081;-73
2022/07/16 04:38:03;;;;;;;7.40;2.80;;;;;;;;;;4988812;28;20018;-73
2022/07/16 04:40:29;;;;;;;7.55;2.78;;;;;;;;;;4986344;28;20014;-74
2022/07/16 04:42:55;;;;;;;6.47;3.05;;;;;;;;;;4987018;28;20033;-73
2022/07/16 04:45:21;;;;;;;6.82;3.00;;;;;;;;;;4978661;28;20039;-73
2022/07/16 04:47:48;;;;;;;6.07;2.90;;;;;;;;;;4985357;28;20357;-73
2022/07/16 04:50:14;;;;;;;6.13;2.47;;;;;;;;;;4980408;28;20033;-73
2022/07/16 04:52:40;;;;;;;7.97;3.28;;;;;;;;;;4988884;28;20036;-73
2022/07/16 04:55:06;;;;;;;9.80;2.70;;;;;;;;;;4986528;28;20022;-73
2022/07/16 04:57:32;;;;;;;7.00;2.65;;;;;;;;;;4984620;28;20394;-74
2022/07/16 04:59:58;;;;;;;6.78;2.58;;;;;;;;;;4988701;28;20118;-73
2022/07/16 05:05:09;;;;;;;8.43;2.58;;;;;;;;;;4981943;28;20503;-74
2022/07/16 05:07:36;;;;;;;5.72;1.70;;;;;;;;;;4978732;28;20075;-74
2022/07/16 05:10:02;;;;;;;4.47;1.33;;;;;;;;;;4986879;28;20022;-74
2022/07/16 05:12:28;;;;;;;7.60;1.40;;;;;;;;;;4976518;28;20027;-74
2022/07/16 05:14:54;;;;;;;5.43;1.00;;;;;;;;;;4983308;28;20492;-74
2022/07/16 05:17:20;;;;;;;5.43;1.42;;;;;;;;;;4982698;28;20106;-74
2022/07/16 05:19:46;;;;;;;4.80;1.00;;;;;;;;;;4988766;28;20173;-73
2022/07/16 05:22:12;;;;;;;3.40;1.13;;;;;;;;;;4989628;28;20065;-73
2022/07/16 05:24:38;;;;;;;4.07;1.00;;;;;;;;;;4985144;28;20022;-73
2022/07/16 05:27:04;;;;;;;4.70;1.00;;;;;;;;;;4976129;28;20034;-73
2022/07/16 05:29:30;;;;;;;3.88;1.05;;;;;;;;;;4974702;28;20023;-74
2022/07/16 05:31:56;;;;;;;7.45;1.00;;;;;;;;;;4974785;28;20027;-74
2022/07/16 05:34:22;;;;;;;4.63;0.95;;;;;;;;;;4974626;28;20058;-74
2022/07/16 05:36:48;;;;;;;4.30;1.00;;;;;;;;;;4974278;28;20038;-74
2022/07/16 05:39:14;;;;;;;3.67;0.93;;;;;;;;;;4974622;28;20034;-73
2022/07/16 05:41:41;;;;;;;4.68;1.00;;;;;;;;;;4974393;28;20031;-74
2022/07/16 05:44:07;;;;;;;3.70;1.10;;;;;;;;;;4974659;28;20015;-74
2022/07/16 05:46:33;;;;;;;6.05;0.95;;;;;;;;;;4958859;28;20055;-74
2022/07/16 05:48:59;;;;;;;3.80;0.95;;;;;;;;;;4955052;29;20031;-74
2022/07/16 05:51:25;;;;;;;3.50;1.00;;;;;;;;;;4955089;29;20190;-74
2022/07/16 05:53:51;;;;;;;8.00;1.23;;;;;;;;;;4954796;29;20042;-73
2022/07/16 05:56:17;;;;;;;4.13;1.10;;;;;;;;;;4959141;28;20026;-73
2022/07/16 05:58:43;;;;;;;6.10;1.75;;;;;;;;;;4974238;28;20283;-73
2022/07/16 06:01:10;;;;;;;9.82;1.20;;;;;;;;;;4974158;28;20030;-73
2022/07/16 06:03:39;;;;;;;4.00;1.30;;;;;;;;;;4976909;28;20038;-73
2022/07/16 06:06:05;;;;;;;5.93;1.30;;;;;;;;;;4993514;28;20033;-74
2022/07/16 06:08:31;;;;;;;4.72;0.98;;;;;;;;;;4993202;28;20069;-74
2022/07/16 06:10:58;;;;;;;5.22;1.25;;;;;;;;;;4991831;28;20033;-74
2022/07/16 06:13:24;;;;;;;4.70;1.13;;;;;;;;;;4993348;28;20029;-73
2022/07/16 06:15:50;;;;;;;4.72;1.08;;;;;;;;;;4993319;28;20030;-73
2022/07/16 06:18:16;;;;;;;2.63;0.80;;;;;;;;;;4971486;28;20077;-73
2022/07/16 06:20:42;;;;;;;8.10;1.35;;;;;;;;;;4954457;29;20443;-74
2022/07/16 06:23:08;;;;;;;5.00;1.17;;;;;;;;;;4954628;29;20031;-73
2022/07/16 06:25:34;;;;;;;6.43;1.20;;;;;;;;;;4954404;29;20370;-74
2022/07/16 06:28:00;;;;;;;6.50;1.10;;;;;;;;;;4954196;29;20035;-74
2022/07/16 06:30:26;;;;;;;6.85;1.20;;;;;;;;;;4954437;29;20374;-74
2022/07/16 06:32:53;;;;;;;8.10;1.20;;;;;;;;;;4954226;29;20114;-73
2022/07/16 06:35:19;;;;;;;7.38;1.10;;;;;;;;;;4953900;28;20047;-74
2022/07/16 06:37:45;;;;;;;8.98;0.95;;;;;;;;;;4954568;29;20055;-74
2022/07/16 06:40:11;;;;;;;5.85;1.20;;;;;;;;;;4954434;29;20082;-74
2022/07/16 06:42:37;;;;;;;3.65;1.15;;;;;;;;;;4953807;29;20154;-74
2022/07/16 06:45:03;;;;;;;2.35;0.68;;;;;;;;;;4954225;28;20023;-74
2022/07/16 06:47:29;;;;;;;6.88;0.90;;;;;;;;;;4954513;29;20031;-74
2022/07/16 06:49:55;;;;;;;8.50;1.10;;;;;;;;;;4954061;29;20027;-74
2022/07/16 06:52:21;;;;;;;7.30;0.98;;;;;;;;;;4985207;28;20030;-74
2022/07/16 06:54:47;;;;;;;3.00;0.80;;;;;;;;;;4954322;29;20485;-74
2022/07/16 06:57:13;;;;;;;6.32;0.88;;;;;;;;;;4954212;28;20050;-74
2022/07/16 06:59:39;;;;;;;8.65;1.17;;;;;;;;;;4954162;29;20031;-74
2022/07/16 07:02:05;;;;;;;2.83;0.60;;;;;;;;;;4954085;29;20035;-74
2022/07/16 07:04:31;;;;;;;7.25;1.17;;;;;;;;;;4953945;29;20088;-74
2022/07/16 07:06:57;;;;;;;9.60;1.88;;;;;;;;;;4954160;29;20038;-74
2022/07/16 07:09:23;;;;;;;4.80;0.98;;;;;;;;;;4953954;29;20167;-72
2022/07/16 07:11:50;;;;;;;5.00;0.95;;;;;;;;;;4965702;28;20484;-73
2022/07/16 07:14:16;;;;;;;8.70;0.90;;;;;;;;;;4981168;28;20033;-72
2022/07/16 07:16:42;;;;;;;6.18;0.90;;;;;;;;;;4983192;28;20026;-72
2022/07/16 07:19:08;;;;;;;3.63;0.80;;;;;;;;;;4980132;28;20022;-72
2022/07/16 07:21:34;;;;;;;6.47;0.80;;;;;;;;;;4978813;28;20961;-72
2022/07/16 07:24:00;;;;;;;6.40;1.42;;;;;;;;;;4980520;28;20047;-72
2022/07/16 07:26:26;;;;;;;4.80;0.80;;;;;;;;;;4983244;28;20564;-72
2022/07/16 07:28:52;;;;;;;5.18;0.80;;;;;;;;;;4982302;28;20062;-72
2022/07/16 07:31:18;;;;;;;2.50;0.60;;;;;;;;;;4979551;28;20035;-72
2022/07/16 07:33:44;;;;;;;6.07;0.93;;;;;;;;;;4981239;28;20147;-72
2022/07/16 07:36:11;;;;;;;1.80;0.60;;;;;;;;;;4980748;28;20035;-72
2022/07/16 07:38:37;;;;;;;1.55;0.50;;;;;;;;;;4979675;28;20116;-72
2022/07/16 07:41:03;;;;;;;5.97;0.75;;;;;;;;;;4980193;28;20010;-72
2022/07/16 07:43:29;;;;;;;4.03;1.33;;;;;;;;;;4988279;28;20026;-72
2022/07/16 07:45:55;;;;;;;2.13;0.73;;;;;;;;;;4981604;28;20076;-72
2022/07/16 07:48:22;;;;;;;1.90;0.70;;;;;;;;;;4979591;28;20038;-72
2022/07/16 07:50:48;;;;;;;7.18;0.75;;;;;;;;;;4983340;28;20692;-72
2022/07/16 07:53:14;;;;;;;3.72;0.50;;;;;;;;;;4985217;28;20030;-72
2022/07/16 07:55:41;;;;;;;7.95;0.82;;;;;;;;;;4985269;28;20432;-73
2022/07/16 07:58:07;;;;;;;5.13;0.60;;;;;;;;;;4989267;28;20093;-74
2022/07/16 08:00:33;;;;;;;5.90;0.73;;;;;;;;;;4976651;28;20030;-74
2022/07/16 08:02:59;;;;;;;5.20;0.70;;;;;;;;;;4988580;28;20458;-73
2022/07/16 08:05:25;;;;;;;3.92;0.70;;;;;;;;;;4988659;28;20030;-74
2022/07/16 08:07:52;;;;;;;2.78;0.60;;;;;;;;;;4990294;28;20023;-74
2022/07/16 08:10:18;;;;;;;5.82;0.68;;;;;;;;;;4995224;28;20018;-74
2022/07/16 08:12:44;;;;;;;5.07;0.60;;;;;;;;;;4987449;28;20038;-74
2022/07/16 08:15:11;;;;;;;2.35;0.63;;;;;;;;;;4975623;28;20023;-73
2022/07/16 08:17:37;;;;;;;2.92;0.50;;;;;;;;;;4969630;28;20469;-73
2022/07/16 08:20:04;;;;;;;4.28;1.40;;;;;;;;;;4955814;29;20331;-74
2022/07/16 08:22:30;;;;;;;2.65;0.70;;;;;;;;;;4956004;29;20027;-74
2022/07/16 08:27:41;;;;;;;4.03;1.15;;;;;;;;;;4992257;28;20057;-74
2022/07/16 08:30:07;;;;;;;2.30;0.55;;;;;;;;;;4983149;28;20027;-74
2022/07/16 08:32:33;;;;;;;3.60;0.50;;;;;;;;;;4985595;28;20402;-73
2022/07/16 08:34:59;;;;;;;9.55;1.15;;;;;;;;;;4983675;28;20089;-73
2022/07/16 08:37:36;;;;;;;5.85;0.70;;;;;;;;;;4986149;28;20030;-74
2022/07/16 08:40:06;;;;;;;2.05;0.60;;;;;;;;;;4984540;28;20019;-74
2022/07/16 08:42:33;;;;;;;5.00;0.82;;;;;;;;;;4985666;28;20525;-73
2022/07/16 08:45:00;;;;;;;4.32;0.80;;;;;;;;;;4987722;28;20027;-74
2022/07/16 08:47:27;;;;;;;6.13;0.50;;;;;;;;;;4981124;28;20037;-73
2022/07/16 08:49:53;;;;;;;2.17;0.50;;;;;;;;;;4985936;28;20086;-73
2022/07/16 08:52:20;;;;;;;4.07;0.60;;;;;;;;;;4983049;28;20042;-74
2022/07/16 08:54:48;;;;;;;3.22;0.55;;;;;;;;;;4986719;28;20076;-75
2022/07/16 08:57:14;;;;;;;3.22;0.50;;;;;;;;;;4994114;28;20338;-74
2022/07/16 08:59:41;;;;;;;5.00;0.70;;;;;;;;;;4981885;28;20040;-74
2022/07/16 09:02:07;;;;;;;3.58;0.60;;;;;;;;;;4974466;28;20031;-74
2022/07/16 09:04:33;;;;;;;4.93;0.80;;;;;;;;;;4974546;28;20072;-74
2022/07/16 09:06:59;;;;;;;3.85;0.60;;;;;;;;;;4974221;28;20414;-74
2022/07/16 09:09:25;;;;;;;3.05;0.60;;;;;;;;;;4974567;28;20034;-73
2022/07/16 09:11:51;;;;;;;4.50;0.68;;;;;;;;;;4974562;28;20032;-75
2022/07/16 09:14:18;;;;;;;0.95;0.45;;;;;;;;;;4974372;28;20031;-74
2022/07/16 09:16:50;;;;;;;3.72;0.60;;;;;;;;;;4974258;28;20031;-74
2022/07/16 09:19:20;;;;;;;4.60;0.55;;;;;;;;;;4955417;28;20024;-74
2022/07/16 09:22:05;;;;;;;2.35;0.60;;;;;;;;;;4954953;28;20027;-74
2022/07/16 09:24:34;;;;;;;3.00;0.50;;;;;;;;;;4955017;29;20038;-74
2022/07/16 09:27:04;;;;;;;3.50;0.60;;;;;;;;;;4954786;29;20027;-74
2022/07/16 09:29:33;;;;;;;3.03;0.60;;;;;;;;;;4985763;28;20082;-74
2022/07/16 09:31:59;;;;;;;6.07;0.90;;;;;;;;;;4954712;29;20040;-74
2022/07/16 09:34:25;;;;;;;2.38;0.70;;;;;;;;;;4954909;29;20048;-74
2022/07/16 09:37:01;;;;;;;3.60;0.70;;;;;;;;;;4954731;28;20031;-74
2022/07/16 09:39:28;;;;;;;4.85;0.82;;;;;;;;;;4954611;29;20031;-74
2022/07/16 09:41:55;;;;;;;2.15;0.45;;;;;;;;;;4971070;28;20080;-75
2022/07/16 09:44:22;;;;;;;5.78;0.60;;;;;;;;;;4983734;28;20073;-75
2022/07/16 09:46:59;;;;;;;5.38;1.00;;;;;;;;;;4980064;28;20034;-75
2022/07/16 09:49:26;;;;;;;2.72;0.70;;;;;;;;;;4978267;28;20023;-74
2022/07/16 09:51:52;;;;;;;5.72;0.60;;;;;;;;;;4986336;28;20565;-75
2022/07/16 09:54:26;;;;;;;3.65;0.60;;;;;;;;;;4983379;28;20030;-75
2022/07/16 09:57:04;;;;;;;3.40;0.57;;;;;;;;;;4979820;28;20496;-75
2022/07/16 09:59:31;;;;;;;2.90;0.68;;;;;;;;;;4983770;28;20027;-74
2022/07/16 10:01:57;;;;;;;3.10;0.68;;;;;;;;;;4980050;28;20101;-74
2022/07/16 10:04:23;;;;;;;2.65;0.50;;;;;;;;;;4982644;28;20469;-74
2022/07/16 10:06:50;;;;;;;5.32;0.60;;;;;;;;;;4981743;28;20055;-75
2022/07/16 10:09:16;;;;;;;5.88;0.80;;;;;;;;;;4982392;28;20031;-75
2022/07/16 10:11:43;;;;;;;3.58;0.98;;;;;;;;;;4979564;28;20026;-74
2022/07/16 10:14:10;;;;;;;2.83;0.50;;;;;;;;;;4984058;28;20036;-74
2022/07/16 10:16:40;;;;;;;3.05;0.52;;;;;;;;;;4981028;28;20058;-75
2022/07/16 10:19:07;;;;;;;2.25;0.43;;;;;;;;;;4978032;28;20023;-73
2022/07/16 10:21:33;;;;;;;4.03;0.40;;;;;;;;;;4972998;28;20496;-74
2022/07/16 10:24:05;;;;;;;4.20;0.50;;;;;;;;;;4973290;28;20030;-73
2022/07/16 10:26:32;;;;;;;2.75;0.60;;;;;;;;;;4972908;28;20069;-75
2022/07/16 10:28:59;;;;;;;2.63;0.55;;;;;;;;;;4973061;28;20069;-74
2022/07/16 10:34:40;;;;;;;3.55;0.70;;;;;;;;;;4971253;28;20129;-74
2022/07/16 10:37:09;;;;;;;7.00;0.85;;;;;;;;;;4980564;28;20393;-76
2022/07/16 10:39:35;;;;;;;2.80;0.70;;;;;;;;;;4982808;28;20475;-76
2022/07/16 10:42:02;;;;;;;2.65;0.98;;;;;;;;;;4987496;28;20503;-76
2022/07/16 10:44:48;;;;;;;4.78;0.73;;;;;;;;;;4979426;28;20025;-76
2022/07/16 10:47:15;;;;;;;4.00;0.60;;;;;;;;;;4983207;28;20416;-77
2022/07/16 10:49:42;;;;;;;3.17;0.60;;;;;;;;;;4980529;28;20026;-78
2022/07/16 10:52:15;;;;;;;5.10;0.65;;;;;;;;;;4984013;28;20425;-78
2022/07/16 10:55:01;;;;;;;2.70;0.65;;;;;;;;;;4981378;28;20035;-78
2022/07/16 10:57:35;;;;;;;3.90;0.98;;;;;;;;;;4953114;28;20764;-77
2022/07/16 11:00:02;;;;;;;2.38;0.60;;;;;;;;;;4974441;28;20109;-77
2022/07/16 11:02:28;;;;;;;4.25;0.75;;;;;;;;;;4990474;28;20022;-76
2022/07/16 11:04:54;;;;;;;3.28;0.90;;;;;;;;;;4981987;28;20038;-76
2022/07/16 11:07:21;;;;;;;6.35;0.70;;;;;;;;;;4985154;28;20014;-76
2022/07/16 11:09:49;;;;;;;3.67;0.73;;;;;;;;;;4982853;28;20026;-76
2022/07/16 11:12:19;;;;;;;4.63;0.60;;;;;;;;;;4984614;28;20027;-77
2022/07/16 11:14:47;;;;;;;5.47;0.63;;;;;;;;;;4987570;28;20090;-77
2022/07/16 11:17:13;;;;;;;2.35;0.50;;;;;;;;;;4979861;28;20110;-76
2022/07/16 11:19:50;;;;;;;9.98;0.70;;;;;;;;;;4981920;28;20018;-75
2022/07/16 11:22:28;;;;;;;4.07;0.80;;;;;;;;;;4973404;28;20450;-76
2022/07/16 11:24:56;;;;;;;55.70;6.45;;;;;;;;;;4973233;28;20058;-76
2022/07/16 11:27:26;;;;;;;5.35;1.10;;;;;;;;;;4973267;28;20109;-77
2022/07/16 11:29:56;;;;;;;17.73;2.70;;;;;;;;;;4976235;28;20057;-77
2022/07/16 11:32:22;;;;;;;5.35;0.85;;;;;;;;;;4977153;28;20069;-76
2022/07/16 11:34:48;;;;;;;5.30;0.57;;;;;;;;;;4977533;28;20096;-75
2022/07/16 11:37:14;;;;;;;3.67;0.70;;;;;;;;;;4977204;28;20053;-76
2022/07/16 11:39:42;;;;;;;6.03;0.88;;;;;;;;;;4977395;28;20019;-76
2022/07/16 11:42:08;;;;;;;6.88;1.05;;;;;;;;;;4977492;28;20023;-76
2022/07/16 11:44:36;;;;;;;4.47;0.60;;;;;;;;;;4976044;28;20038;-76
2022/07/16 11:47:04;;;;;;;2.28;0.57;;;;;;;;;;4958024;28;20381;-77
2022/07/16 11:49:32;;;;;;;4.80;0.60;;;;;;;;;;4981726;28;20433;-78
2022/07/16 11:51:59;;;;;;;3.67;0.50;;;;;;;;;;4981590;28;20130;-78
2022/07/16 11:54:26;;;;;;;3.38;0.60;;;;;;;;;;4977366;28;20035;-77
2022/07/16 11:56:53;;;;;;;7.05;0.60;;;;;;;;;;4977084;28;20038;-78
2022/07/16 11:59:19;;;;;;;4.18;0.70;;;;;;;;;;4985561;28;20369;-77
2022/07/16 12:01:46;;;;;;;2.90;0.40;;;;;;;;;;4987452;28;21329;-77
2022/07/16 12:04:13;;;;;;;5.68;0.70;;;;;;;;;;4984211;28;20030;-77
2022/07/16 12:06:45;;;;;;;2.40;0.70;;;;;;;;;;4988566;28;20030;-76
2022/07/16 12:09:11;;;;;;;3.63;0.60;;;;;;;;;;4978929;28;20023;-77
2022/07/16 12:11:37;;;;;;;4.90;0.90;;;;;;;;;;4975388;28;20085;-78
2022/07/16 12:14:03;;;;;;;2.15;0.55;;;;;;;;;;4984248;28;20029;-77
2022/07/16 12:16:31;;;;;;;2.53;0.70;;;;;;;;;;4984747;28;20084;-77
2022/07/16 12:19:12;;;;;;;6.22;0.70;;;;;;;;;;4983758;28;20385;-78
2022/07/16 12:21:39;;;;;;;3.40;0.60;;;;;;;;;;4977465;28;20487;-77
2022/07/16 12:24:06;;;;;;;6.63;1.05;;;;;;;;;;4976602;28;20015;-78
2022/07/16 12:26:36;;;;;;;4.03;0.60;;;;;;;;;;4977366;28;20389;-77
2022/07/16 12:29:07;;;;;;;2.78;0.60;;;;;;;;;;4978567;28;20117;-77
2022/07/16 12:31:34;;;;;;;3.70;0.63;;;;;;;;;;4978795;28;20508;-77
2022/07/16 12:34:08;;;;;;;3.33;0.82;;;;;;;;;;4977933;28;20034;-77
2022/07/16 12:36:35;;;;;;;5.50;1.15;;;;;;;;;;4974930;28;20038;-78
2022/07/16 12:39:02;;;;;;;3.75;0.65;;;;;;;;;;4975949;28;20030;-77
2022/07/16 12:41:32;;;;;;;6.32;0.80;;;;;;;;;;4974643;28;20157;-76
2022/07/16 12:44:00;;;;;;;4.07;0.63;;;;;;;;;;4974876;28;20429;-78
2022/07/16 12:46:28;;;;;;;4.72;0.75;;;;;;;;;;4978759;28;20027;-76
2022/07/16 12:48:56;;;;;;;3.08;0.60;;;;;;;;;;4977575;28;20488;-77
2022/07/16 12:51:23;;;;;;;7.38;0.50;;;;;;;;;;4976807;28;20089;-74
2022/07/16 12:53:50;;;;;;;4.63;1.20;;;;;;;;;;4975600;28;20042;-76
2022/07/16 12:59:01;;;;;;;2.97;0.40;;;;;;;;;;4980510;28;20066;-77
2022/07/16 13:01:29;;;;;;;4.57;1.10;;;;;;;;;;4987778;28;20026;-77
2022/07/16 13:03:55;;;;;;;6.32;0.75;;;;;;;;;;4974241;28;20027;-78
2022/07/16 13:06:21;;;;;;;2.85;0.75;;;;;;;;;;4977329;28;20086;-79
2022/07/16 13:08:49;;;;;;;2.65;0.40;;;;;;;;;;4977731;28;20117;-78
2022/07/16 13:11:17;;;;;;;4.75;0.70;;;;;;;;;;4975369;28;20054;-78
2022/07/16 13:13:44;;;;;;;2.88;0.60;;;;;;;;;;4975180;28;20038;-74
2022/07/16 13:16:10;;;;;;;2.97;0.50;;;;;;;;;;4974468;28;20311;-75
2022/07/16 13:18:36;;;;;;;4.85;0.98;;;;;;;;;;4960769;28;20498;-75
2022/07/16 13:21:03;;;;;;;3.67;0.50;;;;;;;;;;4954866;29;20039;-75
2022/07/16 13:23:29;;;;;;;1.98;0.65;;;;;;;;;;4955346;29;20073;-75
2022/07/16 13:25:55;;;;;;;2.92;0.60;;;;;;;;;;4970886;28;20042;-75
2022/07/16 13:28:21;;;;;;;2.40;0.45;;;;;;;;;;4974710;28;20385;-75
2022/07/16 13:30:48;;;;;;;7.95;0.90;;;;;;;;;;4974218;28;20034;-75
2022/07/16 13:33:14;;;;;;;4.20;0.45;;;;;;;;;;4974590;28;20115;-75
2022/07/16 13:35:41;;;;;;;5.53;0.60;;;;;;;;;;4973998;28;20525;-75
2022/07/16 13:38:07;;;;;;;7.20;0.80;;;;;;;;;;4974437;28;20022;-75
2022/07/16 13:40:33;;;;;;;7.57;0.70;;;;;;;;;;4974308;28;20082;-75
2022/07/16 13:43:00;;;;;;;5.25;0.50;;;;;;;;;;4974481;28;20027;-75
2022/07/16 13:45:26;;;;;;;3.72;0.63;;;;;;;;;;4973858;28;20035;-75
2022/07/16 13:47:52;;;;;;;5.53;0.80;;;;;;;;;;4974210;28;20027;-75
2022/07/16 13:50:18;;;;;;;6.00;0.50;;;;;;;;;;4973803;28;20031;-75
2022/07/16 13:52:44;;;;;;;6.78;0.50;;;;;;;;;;4973309;28;20030;-75
2022/07/16 13:55:11;;;;;;;3.28;0.68;;;;;;;;;;4973958;28;20457;-75
2022/07/16 14:00:25;;;;;;;6.13;0.60;;;;;;;;;;4973759;28;20041;-78
2022/07/16 14:02:51;;;;;;;6.97;0.77;;;;;;;;;;4966693;28;20712;-78
2022/07/16 14:05:18;;;;;;;2.90;1.00;;;;;;;;;;4973413;28;20113;-77
2022/07/16 14:07:45;;;;;;;3.42;0.40;;;;;;;;;;4974617;28;20480;-77
2022/07/16 14:10:13;;;;;;;10.13;0.80;;;;;;;;;;4974532;28;20083;-77
2022/07/16 14:12:43;;;;;;;2.28;0.60;;;;;;;;;;5004000;28;20066;-76
2022/07/16 14:15:09;;;;;;;4.63;0.80;;;;;;;;;;4969194;28;20468;-78
2022/07/16 14:17:36;;;;;;;5.07;0.98;;;;;;;;;;4973014;28;20037;-77
2022/07/16 14:20:03;;;;;;;4.90;0.70;;;;;;;;;;4968596;28;20033;-78
2022/07/16 14:22:29;;;;;;;3.35;0.63;;;;;;;;;;4968509;28;20034;-78
2022/07/16 14:24:55;;;;;;;4.10;0.55;;;;;;;;;;4968098;28;20022;-77
2022/07/16 14:27:21;;;;;;;3.00;0.60;;;;;;;;;;4972130;28;20038;-76
2022/07/16 14:29:47;;;;;;;12.75;0.75;;;;;;;;;;4970005;28;20023;-77
2022/07/16 14:32:13;;;;;;;2.78;0.80;;;;;;;;;;4973963;28;20484;-77
2022/07/16 14:34:41;;;;;;;3.05;0.50;;;;;;;;;;5004071;28;20051;-77
2022/07/16 14:37:07;;;;;;;4.85;0.73;;;;;;;;;;4979028;28;20505;-73
2022/07/16 14:39:33;;;;;;;7.05;1.30;;;;;;;;;;4971499;28;20029;-74
2022/07/16 14:41:59;;;;;;;1.90;0.50;;;;;;;;;;4970901;28;20034;-74
2022/07/16 14:44:26;;;;;;;3.50;0.70;;;;;;;;;;4970259;28;20022;-74
2022/07/16 14:46:53;;;;;;;3.10;0.60;;;;;;;;;;4973000;28;20081;-74
2022/07/16 14:49:20;;;;;;;4.65;0.70;;;;;;;;;;4966049;28;20454;-73
2022/07/16 14:51:46;;;;;;;4.65;0.80;;;;;;;;;;4968826;28;20020;-75
2022/07/16 14:54:12;;;;;;;6.68;0.85;;;;;;;;;;4963448;28;20077;-75
2022/07/16 14:56:39;;;;;;;3.75;0.77;;;;;;;;;;4962053;28;20433;-74